createdAt,value
2022-10-12T00:02:01.467Z,11.97
2022-10-12T00:05:03.806Z,7.43
2022-10-12T00:07:49.880Z,8.17
2022-10-12T00:10:37.311Z,8.73
2022-10-12T00:13:21.272Z,8.43
2022-10-12T00:20:17.124Z,11.37
2022-10-12T00:23:05.248Z,11.63
2022-10-12T00:29:03.040Z,13.00
2022-10-12T00:32:21.985Z,12.30
2022-10-12T00:34:57.891Z,10.77
2022-10-12T00:37:41.547Z,12.33
2022-10-12T00:41:06.307Z,10.73
2022-10-12T00:44:21.634Z,8.33
2022-10-12T00:47:46.840Z,9.50
2022-10-12T00:50:47.943Z,9.43
2022-10-12T00:54:29.849Z,10.33
2022-10-12T00:57:47.576Z,10.90
2022-10-12T01:01:31.907Z,7.70
2022-10-12T01:10:44.244Z,11.40
2022-10-12T01:13:15.668Z,13.40
2022-10-12T01:15:44.180Z,8.63
2022-10-12T01:18:15.892Z,9.17
2022-10-12T01:21:07.248Z,9.37
2022-10-12T01:24:17.706Z,13.90
2022-10-12T01:27:35.566Z,9.67
2022-10-12T01:30:09.430Z,12.93
2022-10-12T01:32:48.174Z,10.70
2022-10-12T01:35:18.254Z,9.13
2022-10-12T01:38:03.138Z,11.30
2022-10-12T01:40:36.067Z,8.97
2022-10-12T01:43:04.123Z,6.40
2022-10-12T01:45:34.479Z,7.63
2022-10-12T01:48:02.623Z,9.07
2022-10-12T01:50:36.946Z,6.67
2022-10-12T01:53:07.949Z,7.57
2022-10-12T01:55:38.667Z,10.20
2022-10-12T01:58:22.209Z,11.37
2022-10-12T02:00:55.060Z,6.67
2022-10-12T02:03:24.369Z,8.23
2022-10-12T02:05:54.388Z,7.03
2022-10-12T02:13:40.967Z,8.03
2022-10-12T02:16:11.657Z,7.73
2022-10-12T02:18:41.166Z,8.67
2022-10-12T02:21:08.816Z,7.33
2022-10-12T02:23:36.687Z,8.73
2022-10-12T02:26:04.667Z,9.53
2022-10-12T02:28:33.089Z,10.30
2022-10-12T02:31:03.830Z,5.97
2022-10-12T02:33:34.271Z,10.13
2022-10-12T02:36:02.757Z,7.80
2022-10-12T02:38:33.103Z,6.87
2022-10-12T02:41:02.357Z,10.57
2022-10-12T02:43:32.324Z,9.40
2022-10-12T02:46:00.115Z,7.63
2022-10-12T02:48:27.891Z,9.00
2022-10-12T02:50:58.002Z,7.50
2022-10-12T02:53:26.176Z,7.60
2022-10-12T02:55:56.096Z,7.67
2022-10-12T02:58:23.825Z,8.07
2022-10-12T03:00:51.496Z,12.03
2022-10-12T03:03:19.216Z,9.10
2022-10-12T03:05:46.920Z,7.97
2022-10-12T03:08:31.729Z,6.87
2022-10-12T03:11:02.405Z,6.67
2022-10-12T03:13:30.251Z,9.30
2022-10-12T03:16:02.788Z,6.20
2022-10-12T03:18:30.491Z,6.83
2022-10-12T03:20:58.173Z,8.07
2022-10-12T03:23:27.441Z,8.50
2022-10-12T03:25:55.157Z,8.50
2022-10-12T03:28:23.141Z,8.77
2022-10-12T03:30:50.879Z,9.70
2022-10-12T03:33:18.647Z,10.03
2022-10-12T03:35:46.385Z,6.87
2022-10-12T03:38:14.022Z,7.57
2022-10-12T03:40:43.104Z,10.30
2022-10-12T03:43:10.724Z,7.40
2022-10-12T03:45:38.740Z,10.90
2022-10-12T03:48:07.072Z,6.37
2022-10-12T03:50:35.131Z,7.80
2022-10-12T03:53:03.105Z,13.10
2022-10-12T03:55:30.756Z,6.83
2022-10-12T03:57:59.912Z,9.77
2022-10-12T04:00:28.133Z,8.50
2022-10-12T04:02:55.900Z,9.83
2022-10-12T04:05:23.611Z,12.13
2022-10-12T04:07:51.473Z,8.57
2022-10-12T04:10:19.200Z,14.37
2022-10-12T04:12:47.047Z,11.70
2022-10-12T04:15:18.091Z,7.07
2022-10-12T04:17:46.114Z,8.70
2022-10-12T04:20:14.007Z,8.83
2022-10-12T04:22:41.771Z,11.00
2022-10-12T04:25:11.305Z,11.90
2022-10-12T04:27:39.633Z,9.53
2022-10-12T04:30:08.862Z,8.67
2022-10-12T04:32:37.949Z,9.00
2022-10-12T04:35:06.135Z,10.30
2022-10-12T04:37:33.803Z,10.27
2022-10-12T04:40:01.474Z,10.83
2022-10-12T04:42:29.107Z,12.87
2022-10-12T04:44:56.853Z,11.57
2022-10-12T04:47:24.580Z,8.50
2022-10-12T04:49:53.684Z,9.93
2022-10-12T04:52:21.441Z,10.47
2022-10-12T04:54:49.449Z,8.43
2022-10-12T04:57:17.176Z,10.87
2022-10-12T04:59:44.893Z,10.33
2022-10-12T05:02:12.507Z,6.50
2022-10-12T05:04:40.260Z,9.40
2022-10-12T05:07:09.667Z,11.07
2022-10-12T05:09:37.329Z,8.83
2022-10-12T05:12:05.840Z,11.67
2022-10-12T05:14:35.913Z,7.03
2022-10-12T05:17:03.889Z,10.80
2022-10-12T05:19:31.606Z,9.73
2022-10-12T05:21:59.338Z,8.93
2022-10-12T05:24:28.709Z,9.40
2022-10-12T05:26:56.913Z,7.67
2022-10-12T05:29:24.702Z,8.87
2022-10-12T05:31:52.457Z,9.43
2022-10-12T05:34:20.595Z,7.17
2022-10-12T05:36:48.624Z,7.13
2022-10-12T05:39:16.424Z,7.43
2022-10-12T05:41:45.691Z,11.37
2022-10-12T05:44:13.508Z,9.93
2022-10-12T05:46:41.319Z,10.93
2022-10-12T05:49:09.139Z,13.13
2022-10-12T05:51:38.745Z,10.07
2022-10-12T05:54:06.813Z,10.23
2022-10-12T05:56:34.567Z,8.07
2022-10-12T05:59:04.525Z,9.67
2022-10-12T06:01:32.417Z,9.67
2022-10-12T06:04:00.297Z,12.37
2022-10-12T06:06:28.265Z,12.63
2022-10-12T06:08:56.060Z,8.53
2022-10-12T06:11:23.998Z,8.63
2022-10-12T06:13:51.702Z,8.07
2022-10-12T06:16:21.367Z,7.57
2022-10-12T06:18:49.434Z,10.77
2022-10-12T06:21:34.002Z,7.33
2022-10-12T06:24:02.649Z,14.17
2022-10-12T06:26:30.479Z,13.80
2022-10-12T06:29:00.688Z,8.80
2022-10-12T06:31:29.983Z,8.60
2022-10-12T06:33:57.983Z,11.00
2022-10-12T06:39:19.948Z,10.97
2022-10-12T06:41:47.833Z,17.50
2022-10-12T06:44:15.756Z,9.17
2022-10-12T06:46:45.068Z,6.53
2022-10-12T06:49:13.304Z,8.97
2022-10-12T06:51:42.151Z,9.40
2022-10-12T06:54:10.330Z,9.50
2022-10-12T06:56:39.912Z,6.23
2022-10-12T06:59:07.968Z,7.33
2022-10-12T07:01:35.971Z,9.40
2022-10-12T07:04:05.823Z,11.60
2022-10-12T07:06:34.407Z,9.50
2022-10-12T07:09:02.399Z,10.50
2022-10-12T07:11:30.337Z,10.93
2022-10-12T07:13:59.744Z,9.57
2022-10-12T07:16:27.649Z,13.70
2022-10-12T07:19:01.033Z,9.50
2022-10-12T07:21:30.841Z,9.93
2022-10-12T07:23:58.799Z,11.43
2022-10-12T07:26:26.713Z,8.23
2022-10-12T07:28:54.572Z,8.00
2022-10-12T07:31:22.344Z,7.87
2022-10-12T07:33:50.590Z,10.17
2022-10-12T07:36:21.657Z,10.00
2022-10-12T07:38:56.383Z,8.57
2022-10-12T07:41:24.451Z,8.60
2022-10-12T07:43:56.347Z,7.83
2022-10-12T07:46:25.339Z,7.83
2022-10-12T07:48:53.335Z,10.30
2022-10-12T07:51:21.850Z,11.17
2022-10-12T07:53:50.837Z,10.30
2022-10-12T07:56:20.967Z,10.50
2022-10-12T07:58:50.037Z,7.83
2022-10-12T08:01:19.950Z,8.18
2022-10-12T08:03:52.356Z,6.43
2022-10-12T08:06:21.441Z,11.10
2022-10-12T08:08:49.555Z,14.63
2022-10-12T08:11:17.517Z,8.98
2022-10-12T08:13:46.987Z,7.78
2022-10-12T08:16:16.268Z,8.57
2022-10-12T08:18:44.456Z,11.52
2022-10-12T08:21:13.236Z,7.40
2022-10-12T08:23:41.417Z,10.57
2022-10-12T08:26:09.691Z,21.00
2022-10-12T08:28:38.101Z,13.15
2022-10-12T08:31:11.316Z,6.53
2022-10-12T08:33:41.365Z,9.80
2022-10-12T08:36:09.568Z,6.88
2022-10-12T08:38:40.917Z,12.55
2022-10-12T08:41:49.706Z,13.30
2022-10-12T08:45:02.354Z,11.13
2022-10-12T08:47:44.737Z,11.98
2022-10-12T08:51:49.599Z,9.00
2022-10-12T08:53:40.865Z,10.27
2022-10-12T08:56:35.149Z,10.57
2022-10-12T08:59:26.371Z,11.57
2022-10-12T09:02:31.988Z,8.38
2022-10-12T09:05:32.340Z,6.75
2022-10-12T09:08:16.770Z,7.57
2022-10-12T09:10:56.207Z,7.57
2022-10-12T09:13:36.046Z,5.70
2022-10-12T09:16:05.408Z,4.68
2022-10-12T09:18:50.617Z,4.82
2022-10-12T09:21:37.938Z,3.17
2022-10-12T09:24:42.711Z,5.68
2022-10-12T09:27:41.736Z,2.95
2022-10-12T09:33:42.102Z,2.75
2022-10-12T09:36:14.544Z,7.70
2022-10-12T09:39:43.596Z,2.95
2022-10-12T09:42:13.049Z,2.40
2022-10-12T09:44:45.353Z,2.90
2022-10-12T09:47:26.952Z,3.03
2022-10-12T09:49:58.349Z,4.30
2022-10-12T09:52:46.691Z,2.50
2022-10-12T09:55:37.471Z,3.72
2022-10-12T09:58:13.897Z,2.42
2022-10-12T10:00:43.331Z,3.95
2022-10-12T10:03:16.222Z,5.35
2022-10-12T10:06:05.654Z,3.28
2022-10-12T10:08:40.652Z,2.88
2022-10-12T10:11:15.177Z,3.35
2022-10-12T10:13:47.916Z,3.38
2022-10-12T10:16:20.423Z,3.05
2022-10-12T10:18:52.805Z,2.65
2022-10-12T10:21:26.436Z,2.92
2022-10-12T10:23:58.138Z,3.00
2022-10-12T10:26:27.373Z,2.75
2022-10-12T10:29:04.298Z,3.38
2022-10-12T10:31:38.913Z,6.03
2022-10-12T10:34:14.719Z,3.70
2022-10-12T10:36:48.180Z,3.75
2022-10-12T10:39:49.651Z,4.00
2022-10-12T10:45:27.366Z,3.28
2022-10-12T10:56:17.900Z,3.17
2022-10-12T11:02:38.434Z,3.75
2022-10-12T11:08:55.931Z,4.70
2022-10-12T11:19:15.237Z,3.90
2022-10-12T11:22:02.126Z,3.65
2022-10-12T11:28:17.980Z,2.78
2022-10-12T11:28:40.787Z,5.13
2022-10-12T11:30:55.991Z,4.93
2022-10-12T11:37:31.727Z,2.95
2022-10-12T11:40:36.022Z,3.70
2022-10-12T11:43:19.967Z,4.00
2022-10-12T11:46:51.870Z,5.00
2022-10-12T11:57:00.457Z,4.38
2022-10-12T12:00:41.892Z,5.22
2022-10-12T12:03:19.143Z,5.00
2022-10-12T12:15:46.882Z,2.90
2022-10-12T12:18:54.896Z,6.18
2022-10-12T12:25:47.052Z,6.18
2022-10-12T12:28:40.428Z,5.35
2022-10-12T12:31:36.907Z,6.95
2022-10-12T12:54:22.404Z,3.40
2022-10-12T13:01:19.394Z,5.32
2022-10-12T13:04:36.616Z,3.58
2022-10-12T13:07:50.583Z,4.70
2022-10-12T13:18:18.318Z,8.13
2022-10-12T13:21:14.527Z,3.13
2022-10-12T13:23:49.804Z,4.65
2022-10-12T13:26:29.071Z,3.67
2022-10-12T13:29:12.499Z,7.32
2022-10-12T13:32:23.634Z,7.38
2022-10-12T13:34:58.560Z,3.50
2022-10-12T13:37:47.637Z,7.63
2022-10-12T13:43:58.508Z,6.93
2022-10-12T13:46:45.619Z,4.40
2022-10-12T13:49:26.160Z,7.13
2022-10-12T13:52:10.998Z,5.20
2022-10-12T13:54:50.927Z,3.97
2022-10-12T13:57:22.341Z,6.05
2022-10-12T14:00:05.998Z,6.70
2022-10-12T14:02:56.639Z,6.07
2022-10-12T14:05:25.875Z,7.37
2022-10-12T14:08:03.163Z,5.63
2022-10-12T14:10:43.043Z,4.67
2022-10-12T14:13:25.361Z,4.93
2022-10-12T14:15:59.074Z,4.27
2022-10-12T14:18:38.220Z,8.07
2022-10-12T14:21:17.601Z,6.07
2022-10-12T14:23:46.697Z,5.90
2022-10-12T14:26:30.192Z,7.33
2022-10-12T14:29:01.516Z,7.47
2022-10-12T14:31:48.832Z,5.80
2022-10-12T14:34:40.315Z,5.27
2022-10-12T14:37:30.453Z,6.17
2022-10-12T14:40:39.928Z,5.27
2022-10-12T14:43:24.182Z,7.47
2022-10-12T14:45:53.116Z,7.87
2022-10-12T14:48:22.908Z,7.97
2022-10-12T14:50:50.689Z,5.07
2022-10-12T14:53:18.399Z,6.80
2022-10-12T14:55:48.519Z,6.07
2022-10-12T14:58:20.103Z,7.30
2022-10-12T15:00:48.658Z,8.20
2022-10-12T15:03:18.042Z,4.13
2022-10-12T15:05:48.808Z,6.77
2022-10-12T15:08:16.442Z,4.87
2022-10-12T15:10:44.130Z,7.10
2022-10-12T15:13:12.045Z,5.37
2022-10-12T15:15:42.508Z,6.67
2022-10-12T15:18:10.276Z,7.57
2022-10-12T15:20:38.304Z,6.17
2022-10-12T15:23:06.168Z,6.07
2022-10-12T15:25:39.120Z,8.63
2022-10-12T15:28:15.947Z,5.97
2022-10-12T15:31:11.843Z,6.53
2022-10-12T15:33:33.277Z,6.80
2022-10-12T15:36:01.356Z,6.83
2022-10-12T15:38:28.996Z,6.97
2022-10-12T15:40:58.393Z,8.07
2022-10-12T15:43:26.168Z,6.80
2022-10-12T15:45:57.437Z,7.37
2022-10-12T15:48:27.684Z,7.50
2022-10-12T15:50:55.689Z,8.20
2022-10-12T15:53:24.788Z,9.33
2022-10-12T15:55:52.798Z,6.23
2022-10-12T15:58:20.785Z,13.47
2022-10-12T16:00:51.419Z,5.53
2022-10-12T16:03:25.594Z,6.90
2022-10-12T16:05:54.305Z,8.27
2022-10-12T16:08:22.059Z,10.40
2022-10-12T16:10:52.193Z,8.67
2022-10-12T16:13:20.770Z,9.30
2022-10-12T16:15:48.728Z,7.30
2022-10-12T16:18:16.715Z,6.30
2022-10-12T16:20:49.766Z,7.50
2022-10-12T16:23:21.774Z,8.33
2022-10-12T16:25:50.724Z,7.17
2022-10-12T16:28:19.153Z,5.67
2022-10-12T16:30:47.181Z,8.87
2022-10-12T16:33:15.212Z,11.60
2022-10-12T16:35:54.287Z,5.60
2022-10-12T16:38:26.163Z,7.10
2022-10-12T16:41:29.174Z,7.77
2022-10-12T16:44:06.207Z,8.63
2022-10-12T16:46:34.427Z,8.83
2022-10-12T16:49:24.356Z,6.27
2022-10-12T16:51:53.914Z,7.60
2022-10-12T16:54:29.018Z,6.50
2022-10-12T16:56:57.118Z,8.73
2022-10-12T16:59:25.780Z,6.23
2022-10-12T17:05:03.020Z,6.93
2022-10-12T17:08:13.956Z,6.80
2022-10-12T17:10:43.640Z,7.43
2022-10-12T17:13:13.426Z,6.20
2022-10-12T17:15:42.452Z,7.17
2022-10-12T17:18:11.478Z,9.40
2022-10-12T17:20:39.164Z,10.53
2022-10-12T17:23:09.742Z,10.73
2022-10-12T17:25:39.759Z,10.47
2022-10-12T17:28:13.295Z,7.30
2022-10-12T17:30:41.072Z,6.93
2022-10-12T17:33:15.193Z,9.83
2022-10-12T17:35:45.132Z,6.97
2022-10-12T17:38:14.480Z,7.80
2022-10-12T17:40:43.420Z,7.83
2022-10-12T17:43:11.229Z,8.50
2022-10-12T17:45:40.631Z,9.30
2022-10-12T17:48:09.102Z,8.77
2022-10-12T17:50:37.058Z,12.73
2022-10-12T17:53:05.348Z,12.50
2022-10-12T17:55:48.131Z,12.97
2022-10-12T17:58:16.961Z,10.37
2022-10-12T18:00:45.182Z,8.03
2022-10-12T18:03:12.983Z,11.53
2022-10-12T18:05:43.102Z,9.57
2022-10-12T18:08:11.283Z,11.60
2022-10-12T18:10:42.670Z,7.87
2022-10-12T18:13:10.810Z,13.80
2022-10-12T18:15:43.147Z,10.87
2022-10-12T18:18:15.165Z,10.20
2022-10-12T18:20:46.573Z,8.83
2022-10-12T18:23:14.542Z,11.53
2022-10-12T18:25:46.547Z,9.60
2022-10-12T18:28:14.858Z,9.83
2022-10-12T18:30:47.248Z,11.97
2022-10-12T18:33:15.258Z,10.37
2022-10-12T18:35:43.243Z,9.77
2022-10-12T18:38:11.259Z,12.50
2022-10-12T18:40:48.537Z,11.43
2022-10-12T18:43:16.238Z,12.40
2022-10-12T18:45:44.107Z,11.17
2022-10-12T18:48:12.469Z,12.60
2022-10-12T18:50:40.346Z,10.97
2022-10-12T18:53:16.878Z,13.70
2022-10-12T18:55:44.851Z,10.13
2022-10-12T18:58:17.566Z,9.40
2022-10-12T19:00:45.862Z,13.47
2022-10-12T19:03:14.082Z,10.37
2022-10-12T19:05:41.927Z,13.20
2022-10-12T19:08:10.050Z,9.70
2022-10-12T19:10:40.993Z,12.30
2022-10-12T19:13:09.940Z,10.17
2022-10-12T19:15:39.427Z,14.27
2022-10-12T19:18:07.564Z,12.03
2022-10-12T19:20:39.638Z,12.53
2022-10-12T19:23:07.447Z,16.13
2022-10-12T19:25:38.960Z,18.57
2022-10-12T19:28:09.485Z,14.60
2022-10-12T19:30:39.931Z,13.90
2022-10-12T19:33:09.152Z,13.93
2022-10-12T19:35:39.875Z,15.90
2022-10-12T19:38:08.086Z,16.13
2022-10-12T19:40:37.742Z,16.77
2022-10-12T19:43:06.918Z,17.23
2022-10-12T19:45:44.430Z,13.50
2022-10-12T19:48:14.782Z,15.37
2022-10-12T19:50:42.825Z,13.97
2022-10-12T19:53:17.575Z,11.73
2022-10-12T19:55:45.487Z,18.87
2022-10-12T19:58:14.437Z,15.10
2022-10-12T20:00:43.795Z,14.87
2022-10-12T20:03:13.792Z,16.83
2022-10-12T20:05:46.231Z,16.20
2022-10-12T20:08:16.350Z,13.90
2022-10-12T20:10:44.114Z,20.97
2022-10-12T20:13:11.976Z,15.80
2022-10-12T20:15:39.878Z,17.03
2022-10-12T20:18:09.120Z,16.73
2022-10-12T20:20:42.112Z,15.60
2022-10-12T20:23:11.071Z,17.17
2022-10-12T20:25:41.642Z,17.57
2022-10-12T20:28:09.835Z,18.07
2022-10-12T20:30:37.610Z,18.20
2022-10-12T20:33:05.696Z,14.73
2022-10-12T20:35:35.181Z,12.73
2022-10-12T20:38:03.177Z,15.87
2022-10-12T20:40:33.679Z,13.53
2022-10-12T20:43:02.295Z,23.47
2022-10-12T20:45:30.436Z,14.80
2022-10-12T20:47:59.316Z,17.57
2022-10-12T20:50:29.459Z,13.27
2022-10-12T20:52:58.533Z,13.33
2022-10-12T20:55:27.650Z,16.63
2022-10-12T20:57:55.482Z,16.63
2022-10-12T21:00:25.819Z,12.30
2022-10-12T21:02:53.826Z,15.00
2022-10-12T21:05:23.872Z,13.83
2022-10-12T21:07:51.609Z,19.20
2022-10-12T21:10:20.862Z,15.23
2022-10-12T21:12:49.779Z,17.20
2022-10-12T21:15:17.640Z,18.90
2022-10-12T21:17:45.503Z,17.30
2022-10-12T21:20:13.742Z,17.00
2022-10-12T21:22:45.800Z,17.70
2022-10-12T21:25:14.155Z,19.87
2022-10-12T21:27:43.454Z,13.70
2022-10-12T21:30:12.078Z,20.20
2022-10-12T21:32:40.097Z,21.80
2022-10-12T21:35:08.302Z,13.33
2022-10-12T21:37:37.419Z,17.03
2022-10-12T21:40:06.403Z,16.07
2022-10-12T21:42:40.986Z,13.40
2022-10-12T21:45:10.982Z,13.50
2022-10-12T21:47:38.673Z,14.87
2022-10-12T21:50:14.921Z,16.97
2022-10-12T21:52:42.656Z,14.40
2022-10-12T21:55:10.742Z,15.67
2022-10-12T21:57:39.663Z,14.20
2022-10-12T22:00:08.799Z,17.17
2022-10-12T22:02:39.204Z,17.30
2022-10-12T22:05:07.567Z,15.40
2022-10-12T22:07:39.591Z,15.73
2022-10-12T22:10:08.641Z,20.53
2022-10-12T22:12:37.050Z,14.20
2022-10-12T22:15:05.452Z,13.47
2022-10-12T22:17:33.387Z,18.47
2022-10-12T22:20:02.820Z,12.43
2022-10-12T22:22:31.014Z,17.97
2022-10-12T22:24:58.935Z,18.13
2022-10-12T22:27:26.647Z,14.37
2022-10-12T22:30:09.468Z,14.60
2022-10-12T22:35:07.403Z,13.33
2022-10-12T22:37:35.374Z,19.93
2022-10-12T22:40:03.340Z,15.17
2022-10-12T22:42:30.931Z,16.77
2022-10-12T22:44:58.594Z,17.13
2022-10-12T22:47:26.157Z,16.97
2022-10-12T22:49:54.043Z,16.47
2022-10-12T22:52:23.211Z,13.77
2022-10-12T22:54:50.873Z,16.97
2022-10-12T22:57:18.488Z,16.77
2022-10-12T22:59:46.245Z,12.30
2022-10-12T23:02:13.821Z,16.97
2022-10-12T23:04:41.537Z,13.53
2022-10-12T23:07:09.171Z,22.27
2022-10-12T23:09:38.246Z,19.63
2022-10-12T23:12:06.498Z,16.97
2022-10-12T23:14:34.241Z,19.07
2022-10-12T23:17:01.850Z,18.33
2022-10-12T23:19:29.697Z,16.77
2022-10-12T23:21:57.447Z,16.20
2022-10-12T23:24:25.058Z,20.20
2022-10-12T23:26:55.204Z,21.30
2022-10-12T23:29:29.280Z,20.43
2022-10-12T23:31:56.924Z,15.87
2022-10-12T23:34:25.700Z,18.10
2022-10-12T23:36:53.473Z,17.80
2022-10-12T23:39:22.351Z,16.63
2022-10-12T23:41:50.007Z,16.90
2022-10-12T23:44:19.148Z,18.57
2022-10-12T23:46:46.980Z,19.30
2022-10-12T23:49:14.675Z,17.27
2022-10-12T23:51:42.473Z,19.57
2022-10-12T23:54:10.383Z,16.80
2022-10-12T23:56:37.939Z,15.87
2022-10-12T23:59:05.626Z,18.80
